sensor_id;sensor_type;location;lat;lon;timestamp;P1;durP1;ratioP1;P2;durP2;ratioP2
69625;SDS011;56847;51.984;5.088;2022-12-29T00:02:01;3.92;;;3.53;;
69625;SDS011;56847;51.984;5.088;2022-12-29T00:04:31;3.90;;;3.60;;
69625;SDS011;56847;51.984;5.088;2022-12-29T00:06:58;5.72;;;3.85;;
69625;SDS011;56847;51.984;5.088;2022-12-29T00:09:26;5.20;;;3.50;;
69625;SDS011;56847;51.984;5.088;2022-12-29T00:11:53;3.40;;;3.10;;
69625;SDS011;56847;51.984;5.088;2022-12-29T00:14:21;4.65;;;3.38;;
69625;SDS011;56847;51.984;5.088;2022-12-29T00:17:07;4.13;;;3.67;;
69625;SDS011;56847;51.984;5.088;2022-12-29T00:19:34;4.35;;;3.78;;
69625;SDS011;56847;51.984;5.088;2022-12-29T00:22:20;3.90;;;3.50;;
69625;SDS011;56847;51.984;5.088;2022-12-29T00:25:07;4.65;;;3.53;;
69625;SDS011;56847;51.984;5.088;2022-12-29T00:27:54;4.85;;;2.97;;
69625;SDS011;56847;51.984;5.088;2022-12-29T00:30:41;4.33;;;3.60;;
69625;SDS011;56847;51.984;5.088;2022-12-29T00:33:31;4.07;;;3.60;;
69625;SDS011;56847;51.984;5.088;2022-12-29T00:36:25;4.40;;;3.50;;
69625;SDS011;56847;51.984;5.088;2022-12-29T00:39:07;4.53;;;3.00;;
69625;SDS011;56847;51.984;5.088;2022-12-29T00:42:05;4.90;;;3.38;;
69625;SDS011;56847;51.984;5.088;2022-12-29T00:45:08;3.23;;;2.57;;
69625;SDS011;56847;51.984;5.088;2022-12-29T00:47:35;3.30;;;2.50;;
69625;SDS011;56847;51.984;5.088;2022-12-29T00:50:02;6.05;;;2.92;;
69625;SDS011;56847;51.984;5.088;2022-12-29T00:52:29;4.60;;;2.95;;
69625;SDS011;56847;51.984;5.088;2022-12-29T00:55:00;3.45;;;2.95;;
69625;SDS011;56847;51.984;5.088;2022-12-29T00:57:27;6.17;;;3.30;;
69625;SDS011;56847;51.984;5.088;2022-12-29T00:59:54;2.58;;;2.35;;
69625;SDS011;56847;51.984;5.088;2022-12-29T01:02:21;3.85;;;3.20;;
69625;SDS011;56847;51.984;5.088;2022-12-29T01:04:48;4.32;;;2.70;;
69625;SDS011;56847;51.984;5.088;2022-12-29T01:07:18;4.63;;;3.38;;
69625;SDS011;56847;51.984;5.088;2022-12-29T01:09:46;3.33;;;2.57;;
69625;SDS011;56847;51.984;5.088;2022-12-29T01:12:33;5.47;;;2.92;;
69625;SDS011;56847;51.984;5.088;2022-12-29T01:15:12;3.10;;;2.35;;
69625;SDS011;56847;51.984;5.088;2022-12-29T01:17:40;3.35;;;2.47;;
69625;SDS011;56847;51.984;5.088;2022-12-29T01:20:08;2.90;;;2.45;;
69625;SDS011;56847;51.984;5.088;2022-12-29T01:22:37;3.37;;;3.07;;
69625;SDS011;56847;51.984;5.088;2022-12-29T01:25:07;4.25;;;3.00;;
69625;SDS011;56847;51.984;5.088;2022-12-29T01:27:37;3.60;;;2.95;;
69625;SDS011;56847;51.984;5.088;2022-12-29T01:30:04;4.60;;;2.85;;
69625;SDS011;56847;51.984;5.088;2022-12-29T01:32:32;3.15;;;2.53;;
69625;SDS011;56847;51.984;5.088;2022-12-29T01:34:59;3.47;;;3.17;;
69625;SDS011;56847;51.984;5.088;2022-12-29T01:37:26;3.38;;;3.10;;
69625;SDS011;56847;51.984;5.088;2022-12-29T01:39:53;3.05;;;2.85;;
69625;SDS011;56847;51.984;5.088;2022-12-29T01:42:23;3.53;;;2.63;;
69625;SDS011;56847;51.984;5.088;2022-12-29T01:44:54;4.15;;;2.97;;
69625;SDS011;56847;51.984;5.088;2022-12-29T01:47:30;2.70;;;2.50;;
69625;SDS011;56847;51.984;5.088;2022-12-29T01:50:23;3.50;;;2.50;;
69625;SDS011;56847;51.984;5.088;2022-12-29T01:53:00;3.03;;;2.72;;
69625;SDS011;56847;51.984;5.088;2022-12-29T01:55:33;3.22;;;2.70;;
69625;SDS011;56847;51.984;5.088;2022-12-29T01:58:06;4.28;;;3.08;;
69625;SDS011;56847;51.984;5.088;2022-12-29T02:00:36;3.37;;;2.83;;
69625;SDS011;56847;51.984;5.088;2022-12-29T02:03:04;4.57;;;3.28;;
69625;SDS011;56847;51.984;5.088;2022-12-29T02:05:56;2.65;;;2.45;;
69625;SDS011;56847;51.984;5.088;2022-12-29T02:08:37;3.10;;;2.40;;
69625;SDS011;56847;51.984;5.088;2022-12-29T02:11:05;5.18;;;3.10;;
69625;SDS011;56847;51.984;5.088;2022-12-29T02:13:33;5.07;;;2.63;;
69625;SDS011;56847;51.984;5.088;2022-12-29T02:21:34;3.42;;;1.98;;
69625;SDS011;56847;51.984;5.088;2022-12-29T02:29:46;3.92;;;2.10;;
69625;SDS011;56847;51.984;5.088;2022-12-29T02:32:54;2.55;;;2.25;;
69625;SDS011;56847;51.984;5.088;2022-12-29T02:35:37;4.63;;;1.80;;
69625;SDS011;56847;51.984;5.088;2022-12-29T02:46:53;3.00;;;2.22;;
69625;SDS011;56847;51.984;5.088;2022-12-29T02:49:39;5.30;;;2.00;;
69625;SDS011;56847;51.984;5.088;2022-12-29T02:52:22;4.70;;;2.25;;
69625;SDS011;56847;51.984;5.088;2022-12-29T02:54:54;6.70;;;2.40;;
69625;SDS011;56847;51.984;5.088;2022-12-29T02:59:50;2.97;;;2.35;;
69625;SDS011;56847;51.984;5.088;2022-12-29T03:08:06;2.70;;;2.50;;
69625;SDS011;56847;51.984;5.088;2022-12-29T03:13:23;3.25;;;2.00;;
69625;SDS011;56847;51.984;5.088;2022-12-29T03:16:21;3.25;;;2.20;;
69625;SDS011;56847;51.984;5.088;2022-12-29T03:19:04;3.25;;;2.08;;
69625;SDS011;56847;51.984;5.088;2022-12-29T03:24:34;3.60;;;2.03;;
69625;SDS011;56847;51.984;5.088;2022-12-29T03:27:05;3.03;;;1.42;;
69625;SDS011;56847;51.984;5.088;2022-12-29T03:29:39;6.07;;;2.00;;
69625;SDS011;56847;51.984;5.088;2022-12-29T03:32:28;2.90;;;2.42;;
69625;SDS011;56847;51.984;5.088;2022-12-29T03:35:13;3.50;;;2.37;;
69625;SDS011;56847;51.984;5.088;2022-12-29T03:37:45;3.65;;;1.88;;
69625;SDS011;56847;51.984;5.088;2022-12-29T03:40:18;3.97;;;1.90;;
69625;SDS011;56847;51.984;5.088;2022-12-29T03:42:50;4.63;;;2.22;;
69625;SDS011;56847;51.984;5.088;2022-12-29T03:45:19;4.85;;;2.33;;
69625;SDS011;56847;51.984;5.088;2022-12-29T03:47:46;4.03;;;1.83;;
69625;SDS011;56847;51.984;5.088;2022-12-29T03:50:15;3.83;;;2.80;;
69625;SDS011;56847;51.984;5.088;2022-12-29T03:52:43;6.28;;;2.40;;
69625;SDS011;56847;51.984;5.088;2022-12-29T03:55:10;7.70;;;2.75;;
69625;SDS011;56847;51.984;5.088;2022-12-29T03:57:39;5.95;;;2.95;;
69625;SDS011;56847;51.984;5.088;2022-12-29T04:00:09;7.67;;;2.20;;
69625;SDS011;56847;51.984;5.088;2022-12-29T04:02:48;5.63;;;2.88;;
69625;SDS011;56847;51.984;5.088;2022-12-29T04:05:22;5.63;;;2.25;;
69625;SDS011;56847;51.984;5.088;2022-12-29T04:07:52;3.85;;;1.90;;
69625;SDS011;56847;51.984;5.088;2022-12-29T04:10:19;7.05;;;2.30;;
69625;SDS011;56847;51.984;5.088;2022-12-29T04:12:49;4.43;;;1.83;;
69625;SDS011;56847;51.984;5.088;2022-12-29T04:15:16;8.00;;;2.40;;
69625;SDS011;56847;51.984;5.088;2022-12-29T04:17:43;16.10;;;3.40;;
69625;SDS011;56847;51.984;5.088;2022-12-29T04:20:11;3.00;;;2.13;;
69625;SDS011;56847;51.984;5.088;2022-12-29T04:23:02;8.70;;;2.75;;
69625;SDS011;56847;51.984;5.088;2022-12-29T04:25:35;5.80;;;2.67;;
69625;SDS011;56847;51.984;5.088;2022-12-29T04:28:02;9.05;;;2.92;;
69625;SDS011;56847;51.984;5.088;2022-12-29T04:30:47;6.85;;;2.28;;
69625;SDS011;56847;51.984;5.088;2022-12-29T04:33:21;8.27;;;2.58;;
69625;SDS011;56847;51.984;5.088;2022-12-29T04:35:48;8.98;;;3.15;;
69625;SDS011;56847;51.984;5.088;2022-12-29T04:38:16;10.17;;;3.30;;
69625;SDS011;56847;51.984;5.088;2022-12-29T04:40:44;4.35;;;2.03;;
69625;SDS011;56847;51.984;5.088;2022-12-29T04:43:13;9.77;;;2.40;;
69625;SDS011;56847;51.984;5.088;2022-12-29T04:45:58;16.00;;;2.97;;
69625;SDS011;56847;51.984;5.088;2022-12-29T04:48:36;10.88;;;2.97;;
69625;SDS011;56847;51.984;5.088;2022-12-29T04:51:23;8.77;;;2.70;;
69625;SDS011;56847;51.984;5.088;2022-12-29T04:53:50;9.73;;;2.17;;
69625;SDS011;56847;51.984;5.088;2022-12-29T04:56:17;9.45;;;2.45;;
69625;SDS011;56847;51.984;5.088;2022-12-29T04:58:46;3.85;;;2.13;;
69625;SDS011;56847;51.984;5.088;2022-12-29T05:01:13;7.07;;;2.40;;
69625;SDS011;56847;51.984;5.088;2022-12-29T05:03:42;5.50;;;1.93;;
69625;SDS011;56847;51.984;5.088;2022-12-29T05:06:09;13.80;;;2.78;;
69625;SDS011;56847;51.984;5.088;2022-12-29T05:08:36;8.98;;;3.42;;
69625;SDS011;56847;51.984;5.088;2022-12-29T05:11:06;5.97;;;2.50;;
69625;SDS011;56847;51.984;5.088;2022-12-29T05:13:33;9.52;;;2.83;;
69625;SDS011;56847;51.984;5.088;2022-12-29T05:16:01;7.17;;;2.30;;
69625;SDS011;56847;51.984;5.088;2022-12-29T05:18:28;10.48;;;2.42;;
69625;SDS011;56847;51.984;5.088;2022-12-29T05:20:57;9.55;;;3.00;;
69625;SDS011;56847;51.984;5.088;2022-12-29T05:23:24;11.52;;;3.00;;
69625;SDS011;56847;51.984;5.088;2022-12-29T05:25:56;12.45;;;2.58;;
69625;SDS011;56847;51.984;5.088;2022-12-29T05:28:31;11.07;;;2.10;;
69625;SDS011;56847;51.984;5.088;2022-12-29T05:31:08;10.77;;;2.53;;
69625;SDS011;56847;51.984;5.088;2022-12-29T05:33:35;10.23;;;2.33;;
69625;SDS011;56847;51.984;5.088;2022-12-29T05:36:06;5.90;;;2.00;;
69625;SDS011;56847;51.984;5.088;2022-12-29T05:38:41;9.00;;;2.67;;
69625;SDS011;56847;51.984;5.088;2022-12-29T05:41:11;9.67;;;2.77;;
69625;SDS011;56847;51.984;5.088;2022-12-29T05:43:58;10.00;;;3.08;;
69625;SDS011;56847;51.984;5.088;2022-12-29T05:46:36;8.23;;;2.58;;
69625;SDS011;56847;51.984;5.088;2022-12-29T05:49:31;7.65;;;2.40;;
69625;SDS011;56847;51.984;5.088;2022-12-29T05:52:16;14.50;;;2.95;;
69625;SDS011;56847;51.984;5.088;2022-12-29T05:54:44;8.53;;;2.83;;
69625;SDS011;56847;51.984;5.088;2022-12-29T05:57:15;7.70;;;2.33;;
69625;SDS011;56847;51.984;5.088;2022-12-29T05:59:47;6.45;;;2.90;;
69625;SDS011;56847;51.984;5.088;2022-12-29T06:02:14;7.60;;;3.33;;
69625;SDS011;56847;51.984;5.088;2022-12-29T06:04:43;9.98;;;2.72;;
69625;SDS011;56847;51.984;5.088;2022-12-29T06:07:11;8.83;;;2.97;;
69625;SDS011;56847;51.984;5.088;2022-12-29T06:09:42;10.98;;;3.40;;
69625;SDS011;56847;51.984;5.088;2022-12-29T06:12:12;9.88;;;2.92;;
69625;SDS011;56847;51.984;5.088;2022-12-29T06:14:45;9.43;;;2.88;;
69625;SDS011;56847;51.984;5.088;2022-12-29T06:17:12;11.73;;;2.80;;
69625;SDS011;56847;51.984;5.088;2022-12-29T06:19:41;6.93;;;3.17;;
69625;SDS011;56847;51.984;5.088;2022-12-29T06:22:08;9.13;;;2.50;;
69625;SDS011;56847;51.984;5.088;2022-12-29T06:24:39;7.05;;;3.13;;
69625;SDS011;56847;51.984;5.088;2022-12-29T06:27:06;6.70;;;2.78;;
69625;SDS011;56847;51.984;5.088;2022-12-29T06:29:33;12.38;;;3.17;;
69625;SDS011;56847;51.984;5.088;2022-12-29T06:32:03;19.87;;;3.53;;
69625;SDS011;56847;51.984;5.088;2022-12-29T06:34:35;13.27;;;3.20;;
69625;SDS011;56847;51.984;5.088;2022-12-29T06:37:02;10.60;;;3.53;;
69625;SDS011;56847;51.984;5.088;2022-12-29T06:39:29;9.70;;;3.00;;
69625;SDS011;56847;51.984;5.088;2022-12-29T06:42:05;9.27;;;2.88;;
69625;SDS011;56847;51.984;5.088;2022-12-29T06:45:08;11.73;;;3.27;;
69625;SDS011;56847;51.984;5.088;2022-12-29T06:47:35;8.70;;;2.92;;
69625;SDS011;56847;51.984;5.088;2022-12-29T06:50:02;9.15;;;3.05;;
69625;SDS011;56847;51.984;5.088;2022-12-29T06:52:30;10.70;;;2.80;;
69625;SDS011;56847;51.984;5.088;2022-12-29T06:54:59;8.00;;;3.80;;
69625;SDS011;56847;51.984;5.088;2022-12-29T06:57:26;9.23;;;3.03;;
69625;SDS011;56847;51.984;5.088;2022-12-29T06:59:53;8.07;;;2.78;;
69625;SDS011;56847;51.984;5.088;2022-12-29T07:02:22;18.45;;;3.15;;
69625;SDS011;56847;51.984;5.088;2022-12-29T07:04:52;11.50;;;2.53;;
69625;SDS011;56847;51.984;5.088;2022-12-29T07:07:20;9.60;;;2.63;;
69625;SDS011;56847;51.984;5.088;2022-12-29T07:09:47;18.97;;;2.87;;
69625;SDS011;56847;51.984;5.088;2022-12-29T07:12:16;12.63;;;2.65;;
69625;SDS011;56847;51.984;5.088;2022-12-29T07:14:43;9.40;;;2.20;;
69625;SDS011;56847;51.984;5.088;2022-12-29T07:17:11;14.73;;;2.60;;
69625;SDS011;56847;51.984;5.088;2022-12-29T07:19:38;10.43;;;2.78;;
69625;SDS011;56847;51.984;5.088;2022-12-29T07:22:09;6.00;;;2.53;;
69625;SDS011;56847;51.984;5.088;2022-12-29T07:24:36;10.55;;;2.50;;
69625;SDS011;56847;51.984;5.088;2022-12-29T07:27:03;11.02;;;3.03;;
69625;SDS011;56847;51.984;5.088;2022-12-29T07:29:30;10.95;;;3.33;;
69625;SDS011;56847;51.984;5.088;2022-12-29T07:32:00;9.80;;;2.83;;
69625;SDS011;56847;51.984;5.088;2022-12-29T07:34:27;19.40;;;3.90;;
69625;SDS011;56847;51.984;5.088;2022-12-29T07:36:54;8.18;;;2.80;;
69625;SDS011;56847;51.984;5.088;2022-12-29T07:39:22;12.30;;;2.60;;
69625;SDS011;56847;51.984;5.088;2022-12-29T07:41:49;12.00;;;3.00;;
69625;SDS011;56847;51.984;5.088;2022-12-29T07:44:18;14.93;;;3.58;;
69625;SDS011;56847;51.984;5.088;2022-12-29T07:47:11;17.03;;;3.23;;
69625;SDS011;56847;51.984;5.088;2022-12-29T07:49:38;16.77;;;3.28;;
69625;SDS011;56847;51.984;5.088;2022-12-29T07:52:06;11.82;;;3.45;;
69625;SDS011;56847;51.984;5.088;2022-12-29T07:54:33;12.52;;;2.80;;
69625;SDS011;56847;51.984;5.088;2022-12-29T07:57:04;22.58;;;3.17;;
69625;SDS011;56847;51.984;5.088;2022-12-29T07:59:32;14.73;;;2.80;;
69625;SDS011;56847;51.984;5.088;2022-12-29T08:01:59;18.60;;;3.47;;
69625;SDS011;56847;51.984;5.088;2022-12-29T08:04:27;17.52;;;3.33;;
69625;SDS011;56847;51.984;5.088;2022-12-29T08:06:56;13.45;;;3.30;;
69625;SDS011;56847;51.984;5.088;2022-12-29T08:09:23;11.95;;;3.17;;
69625;SDS011;56847;51.984;5.088;2022-12-29T08:11:53;8.87;;;2.60;;
69625;SDS011;56847;51.984;5.088;2022-12-29T08:14:21;11.95;;;3.35;;
69625;SDS011;56847;51.984;5.088;2022-12-29T08:16:49;23.90;;;3.47;;
69625;SDS011;56847;51.984;5.088;2022-12-29T08:19:16;13.38;;;2.95;;
69625;SDS011;56847;51.984;5.088;2022-12-29T08:21:44;25.75;;;4.80;;
69625;SDS011;56847;51.984;5.088;2022-12-29T08:24:11;14.83;;;2.73;;
69625;SDS011;56847;51.984;5.088;2022-12-29T08:26:39;16.23;;;3.50;;
69625;SDS011;56847;51.984;5.088;2022-12-29T08:29:06;18.85;;;3.25;;
69625;SDS011;56847;51.984;5.088;2022-12-29T08:31:34;13.35;;;2.72;;
69625;SDS011;56847;51.984;5.088;2022-12-29T08:34:01;16.45;;;3.40;;
69625;SDS011;56847;51.984;5.088;2022-12-29T08:36:29;9.20;;;3.20;;
69625;SDS011;56847;51.984;5.088;2022-12-29T08:38:59;13.10;;;3.70;;
69625;SDS011;56847;51.984;5.088;2022-12-29T08:41:26;16.02;;;3.03;;
69625;SDS011;56847;51.984;5.088;2022-12-29T08:43:56;14.00;;;3.50;;
69625;SDS011;56847;51.984;5.088;2022-12-29T08:46:26;11.13;;;3.03;;
69625;SDS011;56847;51.984;5.088;2022-12-29T08:48:56;19.23;;;4.43;;
69625;SDS011;56847;51.984;5.088;2022-12-29T08:51:29;23.15;;;3.08;;
69625;SDS011;56847;51.984;5.088;2022-12-29T08:53:56;16.42;;;3.75;;
69625;SDS011;56847;51.984;5.088;2022-12-29T08:56:24;16.17;;;3.90;;
69625;SDS011;56847;51.984;5.088;2022-12-29T08:59:03;16.13;;;3.83;;
69625;SDS011;56847;51.984;5.088;2022-12-29T09:01:31;20.57;;;5.80;;
69625;SDS011;56847;51.984;5.088;2022-12-29T09:04:00;8.23;;;3.30;;
69625;SDS011;56847;51.984;5.088;2022-12-29T09:06:41;16.10;;;4.18;;
69625;SDS011;56847;51.984;5.088;2022-12-29T09:09:09;12.27;;;3.70;;
69625;SDS011;56847;51.984;5.088;2022-12-29T09:11:40;9.23;;;3.60;;
69625;SDS011;56847;51.984;5.088;2022-12-29T09:14:08;11.97;;;3.50;;
69625;SDS011;56847;51.984;5.088;2022-12-29T09:16:36;16.42;;;2.90;;
69625;SDS011;56847;51.984;5.088;2022-12-29T09:19:25;11.05;;;3.58;;
69625;SDS011;56847;51.984;5.088;2022-12-29T09:21:53;10.68;;;3.75;;
69625;SDS011;56847;51.984;5.088;2022-12-29T09:24:25;15.80;;;3.53;;
69625;SDS011;56847;51.984;5.088;2022-12-29T09:26:52;10.93;;;3.30;;
69625;SDS011;56847;51.984;5.088;2022-12-29T09:29:19;15.15;;;3.47;;
69625;SDS011;56847;51.984;5.088;2022-12-29T09:31:47;12.07;;;3.20;;
69625;SDS011;56847;51.984;5.088;2022-12-29T09:34:14;10.05;;;3.40;;
69625;SDS011;56847;51.984;5.088;2022-12-29T09:36:42;11.20;;;3.17;;
69625;SDS011;56847;51.984;5.088;2022-12-29T09:39:09;13.20;;;3.47;;
69625;SDS011;56847;51.984;5.088;2022-12-29T09:41:37;13.13;;;3.60;;
69625;SDS011;56847;51.984;5.088;2022-12-29T09:46:43;12.40;;;3.00;;
69625;SDS011;56847;51.984;5.088;2022-12-29T09:49:18;10.60;;;2.85;;
69625;SDS011;56847;51.984;5.088;2022-12-29T09:51:59;13.57;;;3.40;;
69625;SDS011;56847;51.984;5.088;2022-12-29T09:54:41;15.85;;;3.60;;
69625;SDS011;56847;51.984;5.088;2022-12-29T10:00:21;13.35;;;4.18;;
69625;SDS011;56847;51.984;5.088;2022-12-29T10:02:56;7.97;;;3.30;;
69625;SDS011;56847;51.984;5.088;2022-12-29T10:05:33;4.47;;;2.40;;
69625;SDS011;56847;51.984;5.088;2022-12-29T10:10:53;4.60;;;2.40;;
69625;SDS011;56847;51.984;5.088;2022-12-29T10:17:01;4.32;;;2.60;;
69625;SDS011;56847;51.984;5.088;2022-12-29T10:22:40;6.18;;;2.25;;
69625;SDS011;56847;51.984;5.088;2022-12-29T10:25:58;5.82;;;2.63;;
69625;SDS011;56847;51.984;5.088;2022-12-29T10:31:43;11.98;;;3.50;;
69625;SDS011;56847;51.984;5.088;2022-12-29T10:41:28;19.83;;;4.13;;
69625;SDS011;56847;51.984;5.088;2022-12-29T10:51:14;14.57;;;3.40;;
69625;SDS011;56847;51.984;5.088;2022-12-29T10:53:51;11.65;;;2.60;;
69625;SDS011;56847;51.984;5.088;2022-12-29T10:57:31;9.70;;;3.78;;
69625;SDS011;56847;51.984;5.088;2022-12-29T10:59:32;18.15;;;4.80;;
69625;SDS011;56847;51.984;5.088;2022-12-29T11:04:43;16.00;;;3.93;;
69625;SDS011;56847;51.984;5.088;2022-12-29T11:07:17;13.68;;;4.00;;
69625;SDS011;56847;51.984;5.088;2022-12-29T11:09:52;15.43;;;3.92;;
69625;SDS011;56847;51.984;5.088;2022-12-29T11:12:29;18.77;;;4.07;;
69625;SDS011;56847;51.984;5.088;2022-12-29T11:17:47;17.57;;;5.27;;
69625;SDS011;56847;51.984;5.088;2022-12-29T11:22:54;21.23;;;3.90;;
69625;SDS011;56847;51.984;5.088;2022-12-29T11:25:22;15.43;;;4.13;;
69625;SDS011;56847;51.984;5.088;2022-12-29T11:28:13;9.65;;;3.20;;
69625;SDS011;56847;51.984;5.088;2022-12-29T11:30:42;11.07;;;2.67;;
69625;SDS011;56847;51.984;5.088;2022-12-29T11:33:09;12.60;;;3.15;;
69625;SDS011;56847;51.984;5.088;2022-12-29T11:35:39;12.75;;;3.95;;
69625;SDS011;56847;51.984;5.088;2022-12-29T11:38:21;15.82;;;3.85;;
69625;SDS011;56847;51.984;5.088;2022-12-29T11:40:52;21.67;;;3.75;;
69625;SDS011;56847;51.984;5.088;2022-12-29T11:43:41;21.00;;;4.23;;
69625;SDS011;56847;51.984;5.088;2022-12-29T11:46:30;16.23;;;3.42;;
69625;SDS011;56847;51.984;5.088;2022-12-29T11:49:00;18.08;;;3.95;;
69625;SDS011;56847;51.984;5.088;2022-12-29T11:54:15;18.88;;;3.70;;
69625;SDS011;56847;51.984;5.088;2022-12-29T11:56:55;20.73;;;4.20;;
69625;SDS011;56847;51.984;5.088;2022-12-29T12:02:00;12.85;;;4.20;;
69625;SDS011;56847;51.984;5.088;2022-12-29T12:04:37;19.85;;;5.05;;
69625;SDS011;56847;51.984;5.088;2022-12-29T12:09:47;14.53;;;4.10;;
69625;SDS011;56847;51.984;5.088;2022-12-29T12:12:43;19.45;;;4.47;;
69625;SDS011;56847;51.984;5.088;2022-12-29T12:15:16;16.77;;;3.88;;
69625;SDS011;56847;51.984;5.088;2022-12-29T12:17:57;13.25;;;3.75;;
69625;SDS011;56847;51.984;5.088;2022-12-29T12:20:41;12.70;;;3.70;;
69625;SDS011;56847;51.984;5.088;2022-12-29T12:25:48;13.40;;;3.53;;
69625;SDS011;56847;51.984;5.088;2022-12-29T12:31:51;9.82;;;4.05;;
69625;SDS011;56847;51.984;5.088;2022-12-29T12:34:01;18.38;;;3.80;;
69625;SDS011;56847;51.984;5.088;2022-12-29T12:39:34;26.05;;;4.38;;
69625;SDS011;56847;51.984;5.088;2022-12-29T12:45:06;19.58;;;4.28;;
69625;SDS011;56847;51.984;5.088;2022-12-29T12:48:03;13.65;;;4.80;;
69625;SDS011;56847;51.984;5.088;2022-12-29T12:50:50;17.13;;;3.63;;
69625;SDS011;56847;51.984;5.088;2022-12-29T12:53:40;19.45;;;4.80;;
69625;SDS011;56847;51.984;5.088;2022-12-29T13:07:28;16.30;;;4.05;;
69625;SDS011;56847;51.984;5.088;2022-12-29T13:24:10;11.52;;;3.85;;
69625;SDS011;56847;51.984;5.088;2022-12-29T13:26:48;27.42;;;5.05;;
69625;SDS011;56847;51.984;5.088;2022-12-29T13:32:04;22.93;;;4.70;;
69625;SDS011;56847;51.984;5.088;2022-12-29T13:37:36;15.93;;;4.10;;
69625;SDS011;56847;51.984;5.088;2022-12-29T13:40:15;14.80;;;3.42;;
69625;SDS011;56847;51.984;5.088;2022-12-29T13:42:45;9.90;;;3.85;;
69625;SDS011;56847;51.984;5.088;2022-12-29T13:45:14;7.27;;;2.83;;
69625;SDS011;56847;51.984;5.088;2022-12-29T13:50:30;12.05;;;2.75;;
69625;SDS011;56847;51.984;5.088;2022-12-29T13:55:47;6.57;;;2.45;;
69625;SDS011;56847;51.984;5.088;2022-12-29T13:58:31;6.77;;;2.37;;
69625;SDS011;56847;51.984;5.088;2022-12-29T14:03:54;10.63;;;3.15;;
69625;SDS011;56847;51.984;5.088;2022-12-29T14:09:04;5.82;;;3.13;;
69625;SDS011;56847;51.984;5.088;2022-12-29T14:17:43;9.07;;;2.50;;
69625;SDS011;56847;51.984;5.088;2022-12-29T14:20:18;12.63;;;3.58;;
69625;SDS011;56847;51.984;5.088;2022-12-29T14:28:31;14.48;;;4.38;;
69625;SDS011;56847;51.984;5.088;2022-12-29T14:36:35;8.60;;;3.00;;
69625;SDS011;56847;51.984;5.088;2022-12-29T14:47:35;8.15;;;2.45;;
69625;SDS011;56847;51.984;5.088;2022-12-29T14:50:05;9.80;;;3.13;;
69625;SDS011;56847;51.984;5.088;2022-12-29T14:57:53;11.98;;;2.78;;
69625;SDS011;56847;51.984;5.088;2022-12-29T15:00:27;13.77;;;3.30;;
69625;SDS011;56847;51.984;5.088;2022-12-29T15:05:52;9.73;;;3.23;;
69625;SDS011;56847;51.984;5.088;2022-12-29T15:08:30;11.70;;;2.92;;
69625;SDS011;56847;51.984;5.088;2022-12-29T15:13:38;11.20;;;2.92;;
69625;SDS011;56847;51.984;5.088;2022-12-29T15:18:58;6.57;;;3.13;;
69625;SDS011;56847;51.984;5.088;2022-12-29T15:21:26;11.15;;;3.00;;
69625;SDS011;56847;51.984;5.088;2022-12-29T15:23:58;10.40;;;3.40;;
69625;SDS011;56847;51.984;5.088;2022-12-29T15:26:36;9.13;;;2.83;;
69625;SDS011;56847;51.984;5.088;2022-12-29T15:29:27;11.95;;;3.45;;
69625;SDS011;56847;51.984;5.088;2022-12-29T15:34:51;8.20;;;2.60;;
69625;SDS011;56847;51.984;5.088;2022-12-29T15:37:28;12.43;;;2.75;;
69625;SDS011;56847;51.984;5.088;2022-12-29T15:40:04;5.30;;;2.42;;
69625;SDS011;56847;51.984;5.088;2022-12-29T15:42:36;6.93;;;2.45;;
69625;SDS011;56847;51.984;5.088;2022-12-29T15:45:18;15.07;;;3.40;;
69625;SDS011;56847;51.984;5.088;2022-12-29T15:47:45;9.57;;;2.40;;
69625;SDS011;56847;51.984;5.088;2022-12-29T15:50:20;7.72;;;2.58;;
69625;SDS011;56847;51.984;5.088;2022-12-29T15:52:50;6.60;;;2.22;;
69625;SDS011;56847;51.984;5.088;2022-12-29T15:55:19;5.55;;;2.20;;
69625;SDS011;56847;51.984;5.088;2022-12-29T15:58:21;14.37;;;2.60;;
69625;SDS011;56847;51.984;5.088;2022-12-29T16:00:52;11.48;;;3.03;;
69625;SDS011;56847;51.984;5.088;2022-12-29T16:03:24;8.43;;;2.72;;
69625;SDS011;56847;51.984;5.088;2022-12-29T16:05:55;14.00;;;5.55;;
69625;SDS011;56847;51.984;5.088;2022-12-29T16:08:36;3.72;;;2.28;;
69625;SDS011;56847;51.984;5.088;2022-12-29T16:11:07;3.70;;;1.73;;
69625;SDS011;56847;51.984;5.088;2022-12-29T16:14:02;7.85;;;2.40;;
69625;SDS011;56847;51.984;5.088;2022-12-29T16:16:46;10.85;;;2.97;;
69625;SDS011;56847;51.984;5.088;2022-12-29T16:19:21;5.28;;;1.98;;
69625;SDS011;56847;51.984;5.088;2022-12-29T16:21:52;4.38;;;2.10;;
69625;SDS011;56847;51.984;5.088;2022-12-29T16:24:20;6.20;;;2.47;;
69625;SDS011;56847;51.984;5.088;2022-12-29T16:26:54;8.63;;;2.45;;
69625;SDS011;56847;51.984;5.088;2022-12-29T16:29:25;11.05;;;2.20;;
69625;SDS011;56847;51.984;5.088;2022-12-29T16:31:56;8.32;;;3.25;;
69625;SDS011;56847;51.984;5.088;2022-12-29T16:34:33;20.00;;;5.70;;
69625;SDS011;56847;51.984;5.088;2022-12-29T16:37:29;7.90;;;2.87;;
69625;SDS011;56847;51.984;5.088;2022-12-29T16:42:45;8.25;;;3.08;;
69625;SDS011;56847;51.984;5.088;2022-12-29T16:51:03;7.17;;;2.00;;
69625;SDS011;56847;51.984;5.088;2022-12-29T16:53:47;6.65;;;1.92;;
69625;SDS011;56847;51.984;5.088;2022-12-29T16:56:19;6.78;;;2.15;;
69625;SDS011;56847;51.984;5.088;2022-12-29T16:58:50;8.60;;;2.60;;
69625;SDS011;56847;51.984;5.088;2022-12-29T17:01:30;9.02;;;2.60;;
69625;SDS011;56847;51.984;5.088;2022-12-29T17:03:58;8.20;;;2.53;;
69625;SDS011;56847;51.984;5.088;2022-12-29T17:06:31;6.57;;;2.65;;
69625;SDS011;56847;51.984;5.088;2022-12-29T17:09:01;12.85;;;2.90;;
69625;SDS011;56847;51.984;5.088;2022-12-29T17:11:29;18.45;;;3.50;;
69625;SDS011;56847;51.984;5.088;2022-12-29T17:17:02;8.13;;;2.00;;
69625;SDS011;56847;51.984;5.088;2022-12-29T17:19:33;6.40;;;2.60;;
69625;SDS011;56847;51.984;5.088;2022-12-29T17:22:02;12.45;;;4.20;;
69625;SDS011;56847;51.984;5.088;2022-12-29T17:24:35;10.02;;;3.20;;
69625;SDS011;56847;51.984;5.088;2022-12-29T17:27:02;16.63;;;3.47;;
69625;SDS011;56847;51.984;5.088;2022-12-29T17:29:31;14.77;;;3.93;;
69625;SDS011;56847;51.984;5.088;2022-12-29T17:32:02;9.85;;;3.50;;
69625;SDS011;56847;51.984;5.088;2022-12-29T17:34:35;19.95;;;6.65;;
69625;SDS011;56847;51.984;5.088;2022-12-29T17:37:01;16.92;;;4.57;;
69625;SDS011;56847;51.984;5.088;2022-12-29T17:39:58;10.10;;;4.10;;
69625;SDS011;56847;51.984;5.088;2022-12-29T17:42:25;10.70;;;3.50;;
69625;SDS011;56847;51.984;5.088;2022-12-29T17:44:52;14.25;;;2.72;;
69625;SDS011;56847;51.984;5.088;2022-12-29T17:47:19;9.63;;;3.17;;
69625;SDS011;56847;51.984;5.088;2022-12-29T17:49:46;7.93;;;2.83;;
69625;SDS011;56847;51.984;5.088;2022-12-29T17:52:14;13.65;;;3.47;;
69625;SDS011;56847;51.984;5.088;2022-12-29T17:54:46;16.50;;;3.20;;
69625;SDS011;56847;51.984;5.088;2022-12-29T17:57:18;10.30;;;3.28;;
69625;SDS011;56847;51.984;5.088;2022-12-29T17:59:46;6.00;;;2.67;;
69625;SDS011;56847;51.984;5.088;2022-12-29T18:02:21;10.20;;;4.05;;
69625;SDS011;56847;51.984;5.088;2022-12-29T18:04:49;12.35;;;3.35;;
69625;SDS011;56847;51.984;5.088;2022-12-29T18:07:16;10.50;;;4.50;;
69625;SDS011;56847;51.984;5.088;2022-12-29T18:09:43;22.48;;;3.58;;
69625;SDS011;56847;51.984;5.088;2022-12-29T18:12:45;10.15;;;3.40;;
69625;SDS011;56847;51.984;5.088;2022-12-29T18:15:06;13.68;;;3.63;;
69625;SDS011;56847;51.984;5.088;2022-12-29T18:17:43;12.82;;;3.60;;
69625;SDS011;56847;51.984;5.088;2022-12-29T18:20:11;14.27;;;4.10;;
69625;SDS011;56847;51.984;5.088;2022-12-29T18:22:38;20.25;;;3.90;;
69625;SDS011;56847;51.984;5.088;2022-12-29T18:25:24;11.95;;;3.45;;
69625;SDS011;56847;51.984;5.088;2022-12-29T18:28:09;15.73;;;3.97;;